Time;durP1;ratioP1;P1;durP2;ratioP2;P2;SDS_P1;SDS_P2;PMS_P1;PMS_P2;Temp;Humidity;BMP_temperature;BMP_pressure;BME280_temperature;BME280_humidity;BME280_pressure;Samples;Min_cycle;Max_cycle;Signal;HPM_P1;HPM_P2
2022/09/22 00:01:07;;;;;;;3.70;3.17;;;6.30;99.90;;;;;;5012513;28;20190;-29
2022/09/22 00:03:35;;;;;;;3.23;2.93;;;6.30;99.90;;;;;;5012425;28;20253;-29
2022/09/22 00:06:06;;;;;;;3.43;2.97;;;6.30;99.90;;;;;;4996084;28;20205;-29
2022/09/22 00:08:35;;;;;;;3.33;2.93;;;6.20;99.90;;;;;;4992273;28;20255;-29
2022/09/22 00:11:02;;;;;;;3.30;2.80;;;6.20;99.90;;;;;;4993083;28;20180;-30
2022/09/22 00:13:29;;;;;;;3.53;2.97;;;6.20;99.90;;;;;;4997478;28;20183;-29
2022/09/22 00:15:55;;;;;;;4.17;2.93;;;6.20;99.90;;;;;;4999926;28;20191;-29
2022/09/22 00:18:21;;;;;;;4.17;3.07;;;6.10;99.90;;;;;;5015868;28;20344;-29
2022/09/22 00:20:47;;;;;;;3.00;2.70;;;6.00;99.90;;;;;;4999760;28;20236;-28
2022/09/22 00:23:13;;;;;;;4.13;2.90;;;6.00;99.90;;;;;;5015996;28;20191;-29
2022/09/22 00:25:39;;;;;;;2.97;2.70;;;6.00;99.90;;;;;;4999513;28;20274;-29
2022/09/22 00:28:05;;;;;;;3.90;2.70;;;6.00;99.90;;;;;;5014609;28;20234;-29
2022/09/22 00:30:31;;;;;;;2.93;2.60;;;5.90;99.90;;;;;;4999761;28;20752;-29
2022/09/22 00:32:56;;;;;;;3.63;3.17;;;5.90;99.90;;;;;;4999679;28;20175;-29
2022/09/22 00:35:22;;;;;;;3.97;3.20;;;5.90;99.90;;;;;;5015694;28;20184;-29
2022/09/22 00:37:48;;;;;;;4.03;3.30;;;5.90;99.90;;;;;;5015359;28;20180;-30
2022/09/22 00:40:14;;;;;;;3.47;3.17;;;5.90;99.90;;;;;;4999167;28;20222;-29
2022/09/22 00:42:41;;;;;;;5.57;3.40;;;5.90;99.90;;;;;;5015736;28;20271;-29
2022/09/22 00:45:10;;;;;;;3.80;3.40;;;5.80;99.90;;;;;;5015842;28;20175;-29
2022/09/22 00:47:39;;;;;;;4.40;3.17;;;5.80;99.90;;;;;;5015020;28;20198;-29
2022/09/22 00:50:20;;;;;;;4.87;3.27;;;5.80;99.90;;;;;;5015962;28;20344;-29
2022/09/22 00:52:55;;;;;;;3.27;2.80;;;5.70;99.90;;;;;;4999228;28;20178;-29
2022/09/22 00:55:28;;;;;;;3.23;2.87;;;5.70;99.90;;;;;;4999231;28;20182;-29
2022/09/22 00:57:56;;;;;;;3.57;3.27;;;5.70;99.90;;;;;;4998091;28;20194;-29
2022/09/22 01:00:21;;;;;;;3.27;2.73;;;5.60;99.90;;;;;;5015171;28;20214;-29
2022/09/22 01:02:52;;;;;;;3.93;3.00;;;5.70;99.90;;;;;;4998756;28;20237;-28
2022/09/22 01:05:19;;;;;;;4.87;2.97;;;5.70;99.90;;;;;;4999271;28;20182;-29
2022/09/22 01:07:46;;;;;;;3.33;3.03;;;5.70;99.90;;;;;;4998422;28;20257;-29
2022/09/22 01:10:12;;;;;;;3.87;3.40;;;5.80;99.90;;;;;;5015236;28;20546;-29
2022/09/22 01:12:44;;;;;;;5.20;3.70;;;5.70;99.90;;;;;;5014906;28;20184;-29
2022/09/22 01:15:15;;;;;;;4.93;3.30;;;5.70;99.90;;;;;;4998949;28;20252;-29
2022/09/22 01:17:54;;;;;;;4.50;3.53;;;5.70;99.90;;;;;;5013546;28;20190;-28
2022/09/22 01:23:14;;;;;;;3.50;3.20;;;5.80;99.90;;;;;;5030013;28;20279;-36
2022/09/22 01:26:00;;;;;;;4.50;3.63;;;5.80;99.90;;;;;;5013656;28;20185;-35
2022/09/22 01:28:44;;;;;;;4.23;3.80;;;5.80;99.90;;;;;;5011171;28;20282;-38
2022/09/22 01:31:25;;;;;;;5.43;4.00;;;5.70;99.90;;;;;;5030889;28;20191;-36
2022/09/22 01:34:16;;;;;;;5.13;3.43;;;5.70;99.90;;;;;;5018260;28;20174;-35
2022/09/22 01:36:57;;;;;;;6.07;3.97;;;5.60;99.90;;;;;;5018147;28;20187;-35
2022/09/22 01:39:29;;;;;;;7.33;3.97;;;5.60;99.90;;;;;;4998416;28;20198;-35
2022/09/22 01:42:17;;;;;;;3.87;3.47;;;5.50;99.90;;;;;;5004130;28;20269;-38
2022/09/22 01:45:07;;;;;;;4.40;3.60;;;5.50;99.90;;;;;;5018161;28;20179;-36
2022/09/22 01:47:39;;;;;;;3.80;3.33;;;5.40;99.90;;;;;;5023290;28;20234;-36
2022/09/22 01:50:35;;;;;;;4.97;3.60;;;5.40;99.90;;;;;;5032238;28;20193;-35
2022/09/22 01:53:12;;;;;;;3.67;3.30;;;5.40;99.90;;;;;;4994840;28;20270;-34
2022/09/22 01:55:41;;;;;;;4.87;3.53;;;5.40;99.90;;;;;;4995847;28;20257;-35
2022/09/22 01:58:24;;;;;;;3.90;3.43;;;5.40;99.90;;;;;;5013645;28;20179;-35
2022/09/22 02:01:06;;;;;;;4.87;3.20;;;5.40;99.90;;;;;;5032283;28;20182;-34
2022/09/22 02:03:40;;;;;;;5.10;3.07;;;5.40;99.90;;;;;;5034115;28;20210;-34
2022/09/22 02:06:32;;;;;;;4.13;3.17;;;5.40;99.90;;;;;;5030521;28;20216;-36
2022/09/22 02:09:01;;;;;;;3.37;3.07;;;5.40;99.90;;;;;;5047233;28;20198;-34
2022/09/22 02:11:26;;;;;;;5.10;3.43;;;5.40;99.90;;;;;;5019603;28;20185;-34
2022/09/22 02:13:53;;;;;;;5.07;3.67;;;5.40;99.90;;;;;;5017479;28;20174;-36
2022/09/22 02:16:21;;;;;;;3.80;3.20;;;5.30;99.90;;;;;;5029876;28;20179;-35
2022/09/22 02:18:52;;;;;;;5.30;3.00;;;5.30;99.90;;;;;;5013952;28;20205;-36
2022/09/22 02:21:19;;;;;;;5.10;3.20;;;5.20;99.90;;;;;;5034821;28;20197;-34
2022/09/22 02:23:47;;;;;;;3.57;2.87;;;5.20;99.90;;;;;;5033752;28;20197;-34
2022/09/22 02:26:22;;;;;;;3.27;2.90;;;5.20;99.90;;;;;;5045529;28;20690;-36
2022/09/22 02:28:55;;;;;;;4.17;3.53;;;5.10;99.90;;;;;;5017024;28;20204;-34
2022/09/22 02:31:23;;;;;;;3.33;2.90;;;5.10;99.90;;;;;;5048524;28;20189;-36
2022/09/22 02:33:50;;;;;;;4.40;3.43;;;5.10;99.90;;;;;;4997344;28;20214;-34
2022/09/22 02:36:22;;;;;;;4.77;3.33;;;5.10;99.90;;;;;;4998080;28;20190;-35
2022/09/22 02:39:03;;;;;;;4.23;3.17;;;5.10;99.90;;;;;;5016691;28;20260;-35
2022/09/22 02:42:00;;;;;;;3.37;2.80;;;5.10;99.90;;;;;;5024846;28;20183;-36
2022/09/22 02:44:41;;;;;;;3.57;3.03;;;5.20;99.90;;;;;;4997237;28;20182;-36
2022/09/22 02:47:21;;;;;;;3.23;2.93;;;5.20;99.90;;;;;;5009764;28;20297;-35
2022/09/22 02:49:48;;;;;;;3.73;3.23;;;5.30;99.90;;;;;;5033659;28;20193;-35
2022/09/22 02:52:17;;;;;;;4.27;3.47;;;5.30;99.90;;;;;;4999647;28;20195;-36
2022/09/22 02:54:43;;;;;;;3.63;3.27;;;5.20;99.90;;;;;;4993821;28;20179;-35
2022/09/22 02:57:09;;;;;;;3.60;3.30;;;5.20;99.90;;;;;;5024598;28;20189;-34
2022/09/22 02:59:35;;;;;;;4.47;3.30;;;5.20;99.90;;;;;;5024342;28;20237;-36
2022/09/22 03:02:01;;;;;;;3.37;3.07;;;5.10;99.90;;;;;;5013513;28;20202;-36
2022/09/22 03:04:27;;;;;;;3.83;3.43;;;5.20;99.90;;;;;;5019189;28;20177;-36
2022/09/22 03:06:53;;;;;;;5.47;3.67;;;5.10;99.90;;;;;;5032317;28;20736;-34
2022/09/22 03:09:19;;;;;;;5.13;3.50;;;5.00;99.90;;;;;;5014560;28;20198;-36
2022/09/22 03:11:45;;;;;;;6.30;3.70;;;5.00;99.90;;;;;;5018509;28;20174;-36
2022/09/22 03:14:12;;;;;;;5.83;3.37;;;5.00;99.90;;;;;;5028701;28;20210;-34
2022/09/22 03:16:37;;;;;;;3.27;2.93;;;5.00;99.90;;;;;;5031087;28;20221;-35
2022/09/22 03:19:03;;;;;;;3.57;3.27;;;4.90;99.90;;;;;;5028909;28;20206;-36
2022/09/22 03:21:29;;;;;;;3.70;3.30;;;4.90;99.90;;;;;;5012634;28;20197;-34
2022/09/22 03:23:55;;;;;;;4.00;3.20;;;4.90;99.90;;;;;;5029669;28;20186;-34
2022/09/22 03:26:21;;;;;;;4.53;3.20;;;4.80;99.90;;;;;;5010553;28;20211;-35
2022/09/22 03:28:47;;;;;;;3.27;2.90;;;4.70;99.90;;;;;;4993182;28;20293;-34
2022/09/22 03:31:13;;;;;;;3.37;3.07;;;4.70;99.90;;;;;;5012514;28;20236;-36
2022/09/22 03:33:39;;;;;;;3.27;2.97;;;4.60;99.90;;;;;;5030888;28;20167;-35
2022/09/22 03:36:05;;;;;;;3.73;3.17;;;4.50;99.90;;;;;;5028776;28;20181;-34
2022/09/22 03:38:32;;;;;;;3.80;2.90;;;4.50;99.90;;;;;;5015648;28;20208;-35
2022/09/22 03:40:57;;;;;;;3.30;3.00;;;4.50;99.90;;;;;;5001951;28;20197;-34
2022/09/22 03:43:24;;;;;;;3.10;2.80;;;4.50;99.90;;;;;;5029304;28;20186;-34
2022/09/22 03:45:57;;;;;;;3.57;3.20;;;4.50;99.90;;;;;;5021816;28;20190;-34
2022/09/22 03:48:23;;;;;;;4.17;3.23;;;4.40;99.90;;;;;;4993010;28;20281;-34
2022/09/22 03:50:49;;;;;;;3.70;3.20;;;4.40;99.90;;;;;;5015942;28;20178;-35
2022/09/22 03:53:15;;;;;;;3.87;3.30;;;4.40;99.90;;;;;;5032352;28;20208;-36
2022/09/22 03:55:41;;;;;;;4.23;3.50;;;4.40;99.90;;;;;;5040131;28;20237;-34
2022/09/22 03:58:07;;;;;;;3.93;3.40;;;4.40;99.90;;;;;;5012358;28;20179;-35
2022/09/22 04:00:34;;;;;;;3.80;3.20;;;4.30;99.90;;;;;;5014069;28;20205;-34
2022/09/22 04:03:00;;;;;;;4.77;3.13;;;4.20;99.90;;;;;;5054306;28;20193;-34
2022/09/22 04:05:26;;;;;;;4.07;3.47;;;4.20;99.90;;;;;;5029114;28;20233;-36
2022/09/22 04:07:52;;;;;;;3.97;3.57;;;4.30;99.90;;;;;;5032693;28;20274;-35
2022/09/22 04:10:18;;;;;;;4.00;3.43;;;4.30;99.90;;;;;;5021689;28;20255;-34
2022/09/22 04:12:44;;;;;;;4.57;3.50;;;4.40;99.90;;;;;;5009989;28;20189;-34
2022/09/22 04:15:10;;;;;;;4.20;3.40;;;4.40;99.90;;;;;;4997243;28;20262;-34
2022/09/22 04:17:36;;;;;;;4.70;4.23;;;4.40;99.90;;;;;;5012490;28;20213;-34
2022/09/22 04:20:04;;;;;;;6.03;4.10;;;4.30;99.90;;;;;;5024142;28;20257;-34
2022/09/22 04:22:30;;;;;;;5.70;3.93;;;4.30;99.90;;;;;;5033979;28;20191;-35
2022/09/22 04:24:56;;;;;;;5.00;3.77;;;4.20;99.90;;;;;;5012267;28;20277;-35
2022/09/22 04:27:22;;;;;;;8.97;5.43;;;4.20;99.90;;;;;;4999902;28;20305;-34
2022/09/22 04:29:48;;;;;;;7.93;4.43;;;4.20;99.90;;;;;;5004781;28;20198;-34
2022/09/22 04:32:15;;;;;;;10.40;5.33;;;4.10;99.90;;;;;;5012519;28;20231;-34
2022/09/22 04:34:42;;;;;;;8.53;5.07;;;4.10;99.90;;;;;;5020529;28;20174;-34
2022/09/22 04:37:08;;;;;;;6.27;4.10;;;4.10;99.90;;;;;;4999051;28;20190;-45
2022/09/22 04:39:35;;;;;;;7.87;4.30;;;4.00;99.90;;;;;;5032251;28;20201;-44
2022/09/22 04:42:01;;;;;;;5.93;4.17;;;4.00;99.90;;;;;;5016558;28;20182;-45
2022/09/22 04:44:27;;;;;;;5.13;3.90;;;4.00;99.90;;;;;;4999239;28;20190;-45
2022/09/22 04:46:54;;;;;;;6.63;4.60;;;3.90;99.90;;;;;;5031786;28;20210;-45
2022/09/22 04:49:20;;;;;;;6.80;3.77;;;3.80;99.90;;;;;;5031655;28;20289;-45
2022/09/22 04:51:46;;;;;;;6.70;4.10;;;3.80;99.90;;;;;;5021028;28;20266;-45
2022/09/22 04:54:13;;;;;;;5.87;3.97;;;3.80;99.90;;;;;;5046911;28;20206;-44
2022/09/22 04:56:40;;;;;;;5.97;4.30;;;3.80;99.90;;;;;;5013375;28;20240;-46
2022/09/22 04:59:06;;;;;;;4.47;3.90;;;3.70;99.90;;;;;;5015296;28;20209;-46
2022/09/22 05:01:32;;;;;;;5.17;4.27;;;3.70;99.90;;;;;;5032867;28;20179;-45
2022/09/22 05:03:58;;;;;;;6.40;3.90;;;3.70;99.90;;;;;;5031827;28;20178;-44
2022/09/22 05:06:24;;;;;;;6.50;3.67;;;3.80;99.90;;;;;;5018698;28;20220;-45
2022/09/22 05:08:49;;;;;;;5.00;3.40;;;3.90;99.90;;;;;;5019864;28;20257;-45
2022/09/22 05:11:15;;;;;;;3.97;3.30;;;3.90;99.90;;;;;;5037223;28;20174;-44
2022/09/22 05:13:41;;;;;;;3.70;3.27;;;3.90;99.90;;;;;;5054835;28;20261;-46
2022/09/22 05:16:07;;;;;;;4.20;3.80;;;3.90;99.90;;;;;;5036971;28;20661;-46
2022/09/22 05:18:34;;;;;;;8.03;4.67;;;3.90;99.90;;;;;;5030478;28;20206;-46
2022/09/22 05:21:00;;;;;;;8.07;6.37;;;3.80;99.90;;;;;;5038278;28;20187;-45
2022/09/22 05:23:27;;;;;;;5.60;4.70;;;3.90;99.90;;;;;;5017264;28;20266;-44
2022/09/22 05:25:53;;;;;;;6.50;5.33;;;3.90;99.90;;;;;;4998523;28;20171;-45
2022/09/22 05:28:21;;;;;;;5.27;4.60;;;3.90;99.90;;;;;;5031968;28;20205;-45
2022/09/22 05:30:51;;;;;;;6.87;4.40;;;3.90;99.90;;;;;;5044126;28;20191;-45
2022/09/22 05:33:17;;;;;;;6.63;4.30;;;3.80;99.90;;;;;;5021946;28;20181;-44
2022/09/22 05:35:43;;;;;;;5.60;4.93;;;3.90;99.90;;;;;;5013847;28;20182;-45
2022/09/22 05:38:08;;;;;;;7.13;5.37;;;3.90;99.90;;;;;;5021330;28;20183;-44
2022/09/22 05:40:34;;;;;;;8.33;6.60;;;3.80;99.90;;;;;;4998992;28;20190;-45
2022/09/22 05:43:00;;;;;;;7.53;5.67;;;3.80;99.90;;;;;;5038288;28;20187;-46
2022/09/22 05:45:26;;;;;;;6.73;4.77;;;3.70;99.90;;;;;;4998633;28;20179;-45
2022/09/22 05:47:59;;;;;;;6.50;4.80;;;3.70;99.90;;;;;;5032674;28;20221;-45
2022/09/22 05:50:25;;;;;;;6.03;4.57;;;3.80;99.90;;;;;;5032047;28;20203;-45
2022/09/22 05:53:01;;;;;;;7.20;5.10;;;3.90;99.90;;;;;;5017959;28;20254;-45
2022/09/22 05:55:29;;;;;;;7.63;6.83;;;4.00;99.90;;;;;;5047990;28;20181;-46
2022/09/22 05:57:58;;;;;;;11.60;9.93;;;4.10;99.90;;;;;;5013302;28;20265;-44
2022/09/22 06:00:25;;;;;;;12.87;9.83;;;4.20;99.90;;;;;;5013832;28;20198;-45
2022/09/22 06:02:51;;;;;;;8.03;6.70;;;4.30;99.90;;;;;;5013288;28;20193;-46
2022/09/22 06:05:18;;;;;;;7.17;6.43;;;4.40;99.90;;;;;;4997973;28;20178;-45
2022/09/22 06:07:43;;;;;;;62.03;20.90;;;4.50;99.90;;;;;;5018723;28;20226;-45
2022/09/22 06:10:12;;;;;;;44.60;19.37;;;4.60;99.90;;;;;;4997026;28;20228;-45
2022/09/22 06:12:38;;;;;;;60.33;23.77;;;4.70;99.90;;;;;;5015660;28;20229;-45
2022/09/22 06:15:06;;;;;;;13.67;7.37;;;4.80;99.90;;;;;;5034934;28;20229;-46
2022/09/22 06:17:32;;;;;;;7.83;6.67;;;4.80;99.90;;;;;;5013238;28;20182;-46
2022/09/22 06:19:59;;;;;;;5.60;5.00;;;4.90;99.90;;;;;;5036537;28;20282;-45
2022/09/22 06:22:27;;;;;;;7.67;4.80;;;5.00;99.90;;;;;;5012435;28;20298;-46
2022/09/22 06:24:55;;;;;;;6.90;4.40;;;5.00;99.90;;;;;;5031581;28;20178;-45
2022/09/22 06:27:22;;;;;;;6.90;4.93;;;5.20;99.90;;;;;;5012358;28;20222;-45
2022/09/22 06:29:48;;;;;;;9.13;6.70;;;5.20;99.90;;;;;;5014097;28;20274;-45
2022/09/22 06:32:14;;;;;;;11.00;5.80;;;5.30;99.90;;;;;;5016076;28;20179;-45
2022/09/22 06:34:43;;;;;;;10.33;6.50;;;5.40;99.90;;;;;;5030561;28;20609;-45
2022/09/22 06:37:11;;;;;;;11.00;5.67;;;5.40;99.90;;;;;;5015535;28;20185;-46
2022/09/22 06:39:37;;;;;;;13.03;5.53;;;5.50;99.90;;;;;;5028892;28;20205;-46
2022/09/22 06:42:05;;;;;;;8.97;5.17;;;5.50;99.90;;;;;;5007950;28;20182;-45
2022/09/22 06:44:32;;;;;;;6.20;4.37;;;5.60;99.90;;;;;;5011511;28;20264;-45
2022/09/22 06:47:04;;;;;;;4.87;4.20;;;5.70;99.90;;;;;;5028649;28;20221;-45
2022/09/22 06:49:30;;;;;;;5.27;4.40;;;5.70;99.90;;;;;;5032502;28;20226;-45
2022/09/22 06:51:57;;;;;;;5.80;4.00;;;5.80;99.90;;;;;;5012041;28;20250;-45
2022/09/22 06:54:23;;;;;;;4.60;4.20;;;5.90;99.90;;;;;;4995589;28;20278;-45
2022/09/22 06:56:49;;;;;;;7.73;4.20;;;6.00;99.90;;;;;;5013227;28;20275;-45
2022/09/22 06:59:15;;;;;;;5.67;3.60;;;6.10;99.90;;;;;;4996288;28;20198;-46
2022/09/22 07:01:43;;;;;;;8.17;4.77;;;6.20;99.90;;;;;;4996298;28;20262;-46
2022/09/22 07:04:11;;;;;;;5.80;4.10;;;6.30;99.90;;;;;;5006029;28;20193;-46
2022/09/22 07:06:39;;;;;;;7.50;3.90;;;6.40;99.90;;;;;;5028026;28;20298;-46
2022/09/22 07:09:07;;;;;;;5.63;4.00;;;6.50;99.90;;;;;;5011936;28;20199;-46
2022/09/22 07:11:36;;;;;;;5.60;4.07;;;6.50;99.90;;;;;;5010113;28;20176;-46
2022/09/22 07:14:02;;;;;;;6.53;4.37;;;6.60;99.90;;;;;;5026695;28;20179;-46
2022/09/22 07:16:30;;;;;;;6.77;4.10;;;6.60;99.90;;;;;;5033144;28;20180;-45
2022/09/22 07:18:57;;;;;;;4.70;4.20;;;6.70;99.90;;;;;;5012023;28;20204;-46
2022/09/22 07:21:26;;;;;;;6.87;3.90;;;6.80;99.90;;;;;;5016931;28;20250;-45
2022/09/22 07:23:55;;;;;;;7.20;4.13;;;6.80;99.90;;;;;;5029022;28;20191;-46
2022/09/22 07:26:25;;;;;;;5.63;4.53;;;6.90;99.90;;;;;;5012641;28;20204;-45
2022/09/22 07:28:55;;;;;;;6.13;4.30;;;7.00;99.90;;;;;;5011365;28;20228;-46
2022/09/22 07:31:26;;;;;;;5.67;4.00;;;7.10;99.90;;;;;;5038399;28;20541;-46
2022/09/22 07:33:53;;;;;;;5.13;4.23;;;7.30;99.90;;;;;;5018500;28;20246;-46
2022/09/22 07:36:22;;;;;;;5.67;4.13;;;7.40;99.90;;;;;;5027175;28;20195;-46
2022/09/22 07:38:50;;;;;;;8.10;4.83;;;7.50;99.90;;;;;;5021833;28;20219;-45
2022/09/22 07:41:20;;;;;;;6.60;4.03;;;7.60;99.90;;;;;;5019126;28;20177;-46
2022/09/22 07:43:52;;;;;;;5.40;4.67;;;7.80;99.90;;;;;;5029745;28;20556;-45
2022/09/22 07:46:19;;;;;;;6.90;4.70;;;7.80;99.90;;;;;;5016266;28;20231;-46
2022/09/22 07:48:46;;;;;;;5.73;4.40;;;7.90;99.90;;;;;;5029675;28;20208;-46
2022/09/22 07:51:20;;;;;;;6.93;4.33;;;8.00;99.90;;;;;;5028802;28;20190;-45
2022/09/22 07:54:08;;;;;;;5.93;4.60;;;8.10;99.90;;;;;;5027526;28;20189;-45
2022/09/22 07:56:39;;;;;;;6.23;4.97;;;8.20;99.90;;;;;;5018611;28;20187;-46
2022/09/22 07:59:09;;;;;;;7.83;5.40;;;8.40;99.90;;;;;;5008446;28;20214;-45
2022/09/22 08:01:43;;;;;;;6.13;5.23;;;8.50;99.90;;;;;;5041996;28;20174;-45
2022/09/22 08:04:11;;;;;;;8.03;5.57;;;8.70;99.90;;;;;;4976549;28;20232;-45
2022/09/22 08:06:36;;;;;;;6.77;5.30;;;8.90;99.90;;;;;;4997134;28;20206;-45
2022/09/22 08:09:07;;;;;;;6.47;5.20;;;9.10;99.90;;;;;;5012044;28;20244;-46
2022/09/22 08:11:33;;;;;;;8.60;5.40;;;9.30;99.90;;;;;;4996007;28;20182;-45
2022/09/22 08:14:04;;;;;;;5.60;5.10;;;9.40;99.90;;;;;;5011238;28;20206;-46
2022/09/22 08:16:33;;;;;;;6.23;4.60;;;9.50;99.90;;;;;;5029181;28;20210;-46
2022/09/22 08:19:09;;;;;;;6.60;4.63;;;9.70;99.90;;;;;;5028157;28;20203;-45
2022/09/22 08:21:35;;;;;;;6.00;4.40;;;9.90;99.90;;;;;;5027297;28;20185;-46
2022/09/22 08:24:06;;;;;;;5.93;4.30;;;10.10;99.90;;;;;;5033364;28;20194;-46
2022/09/22 08:26:35;;;;;;;5.73;4.80;;;10.20;99.90;;;;;;5012825;28;20218;-46
2022/09/22 08:29:02;;;;;;;7.13;5.43;;;10.40;99.90;;;;;;5029377;28;20226;-46
2022/09/22 08:31:28;;;;;;;6.77;5.00;;;10.60;99.90;;;;;;5030597;28;20200;-45
2022/09/22 08:33:54;;;;;;;5.60;4.93;;;10.60;99.90;;;;;;5013032;28;20206;-45
2022/09/22 08:36:22;;;;;;;7.90;5.43;;;10.80;99.90;;;;;;5006895;28;20187;-46
2022/09/22 08:38:48;;;;;;;7.27;5.30;;;10.80;99.90;;;;;;5006957;28;20202;-46
2022/09/22 08:41:17;;;;;;;8.27;5.20;;;11.00;99.90;;;;;;5017047;28;20210;-46
2022/09/22 08:43:51;;;;;;;6.27;5.30;;;11.10;99.90;;;;;;5020783;28;20198;-46
2022/09/22 08:46:17;;;;;;;9.00;5.43;;;11.30;99.90;;;;;;5014971;28;20205;-45
2022/09/22 08:51:51;;;;;;;7.90;5.20;;;11.60;99.90;;;;;;5040930;28;20183;-46
2022/09/22 08:54:39;;;;;;;7.97;5.20;;;11.80;99.90;;;;;;5033259;28;20192;-45
2022/09/22 08:57:26;;;;;;;7.60;5.47;;;12.00;99.90;;;;;;5045670;28;20219;-45
2022/09/22 09:00:09;;;;;;;6.43;5.10;;;12.00;99.90;;;;;;5017784;28;20229;-46
2022/09/22 09:02:40;;;;;;;5.90;4.50;;;12.20;99.90;;;;;;5020347;28;20215;-45
2022/09/22 09:05:45;;;;;;;4.87;4.17;;;12.20;99.90;;;;;;5015980;28;20187;-46
2022/09/22 09:08:43;;;;;;;5.40;4.53;;;12.40;99.90;;;;;;5014989;28;20205;-46
2022/09/22 09:11:39;;;;;;;6.77;4.37;;;12.60;99.90;;;;;;5017565;28;20182;-46
2022/09/22 09:14:23;;;;;;;5.60;4.50;;;12.90;99.90;;;;;;5027288;28;20267;-45
2022/09/22 09:17:09;;;;;;;4.40;4.00;;;13.00;99.90;;;;;;5017867;28;20236;-46
2022/09/22 09:20:04;;;;;;;7.50;4.20;;;13.10;99.90;;;;;;5038370;28;20209;-46
2022/09/22 09:22:39;;;;;;;6.10;3.80;;;13.30;99.90;;;;;;5038302;28;20197;-46
2022/09/22 09:25:21;;;;;;;4.43;3.30;;;13.30;99.90;;;;;;5013980;28;20201;-46
2022/09/22 09:27:55;;;;;;;3.70;2.40;;;13.50;99.90;;;;;;5026195;28;20221;-45
2022/09/22 09:30:23;;;;;;;5.53;2.73;;;13.60;99.90;;;;;;5006429;28;20203;-46
2022/09/22 09:33:10;;;;;;;3.57;2.50;;;13.80;99.90;;;;;;5022438;28;20236;-47
2022/09/22 09:35:50;;;;;;;4.30;2.67;;;14.10;99.90;;;;;;5014535;28;20179;-46
2022/09/22 09:38:30;;;;;;;4.83;2.33;;;14.20;99.90;;;;;;4997474;28;20179;-45
2022/09/22 09:41:12;;;;;;;3.87;2.23;;;14.40;99.90;;;;;;5013299;28;20186;-45
2022/09/22 09:43:41;;;;;;;3.93;2.33;;;14.60;99.90;;;;;;4996270;28;20253;-46
2022/09/22 09:46:25;;;;;;;3.47;2.10;;;14.80;99.90;;;;;;5010780;28;20240;-46
2022/09/22 09:49:03;;;;;;;4.73;2.27;;;15.00;99.90;;;;;;5014770;28;20213;-46
2022/09/22 09:51:32;;;;;;;3.70;2.10;;;15.20;99.90;;;;;;5022591;28;20170;-47
2022/09/22 09:54:02;;;;;;;2.43;1.63;;;15.30;99.90;;;;;;5022883;28;20238;-47
2022/09/22 09:56:31;;;;;;;2.87;1.87;;;15.40;99.90;;;;;;5001560;28;20237;-46
2022/09/22 10:01:49;;;;;;;2.13;1.53;;;15.60;99.90;;;;;;5027250;28;20187;-47
2022/09/22 10:04:34;;;;;;;3.10;1.63;;;15.80;99.90;;;;;;4994970;28;20206;-45
2022/09/22 10:07:23;;;;;;;1.80;1.50;;;15.90;99.90;;;;;;4997553;28;20218;-46
2022/09/22 10:09:53;;;;;;;5.60;1.70;;;16.00;99.90;;;;;;5014244;28;20221;-46
2022/09/22 10:12:20;;;;;;;2.80;1.70;;;16.20;99.90;;;;;;5018987;28;20171;-46
2022/09/22 10:14:52;;;;;;;2.80;1.70;;;16.30;99.90;;;;;;5013939;28;20171;-46
2022/09/22 10:17:20;;;;;;;1.80;1.50;;;16.40;99.90;;;;;;5013851;28;20210;-46
2022/09/22 10:19:49;;;;;;;3.00;1.43;;;16.60;99.90;;;;;;5031837;28;20234;-46
2022/09/22 10:22:19;;;;;;;2.07;1.37;;;16.60;99.90;;;;;;5018546;28;20202;-46
2022/09/22 10:25:00;;;;;;;2.27;1.50;;;16.80;99.90;;;;;;4993766;28;20249;-46
2022/09/22 10:27:29;;;;;;;3.07;1.00;;;16.90;99.90;;;;;;5013264;28;20209;-46
2022/09/22 10:30:12;;;;;;;2.03;1.53;;;16.90;99.90;;;;;;5031774;28;20277;-46
2022/09/22 10:32:39;;;;;;;1.10;1.00;;;17.00;99.90;;;;;;5013409;28;20175;-45
2022/09/22 10:35:35;;;;;;;1.77;0.93;;;17.10;99.90;;;;;;5014927;28;20187;-45
2022/09/22 10:38:10;;;;;;;1.70;1.50;;;17.10;99.90;;;;;;4999124;28;20194;-46
2022/09/22 10:40:40;;;;;;;1.57;1.30;;;17.20;99.90;;;;;;5013741;28;20631;-46
2022/09/22 10:43:20;;;;;;;2.20;1.63;;;17.30;99.90;;;;;;5013246;28;20217;-46
2022/09/22 10:45:59;;;;;;;3.00;1.77;;;17.40;99.90;;;;;;4997298;28;20178;-46
2022/09/22 10:48:43;;;;;;;4.27;1.30;;;17.60;99.90;;;;;;5015389;28;20198;-46
2022/09/22 10:51:40;;;;;;;1.17;1.08;;;17.70;99.90;;;;;;5017321;28;20178;-46
2022/09/22 10:54:22;;;;;;;1.40;1.00;;;17.60;99.90;;;;;;5029471;28;20264;-46
2022/09/22 10:56:52;;;;;;;2.03;1.45;;;17.80;99.90;;;;;;5027902;28;20233;-47
2022/09/22 10:59:40;;;;;;;3.70;1.40;;;18.00;99.90;;;;;;5025518;28;20194;-46
2022/09/22 11:02:40;;;;;;;2.25;1.13;;;18.10;99.90;;;;;;5013777;28;20190;-46
2022/09/22 11:15:04;;;;;;;2.05;1.40;;;18.40;99.90;;;;;;5015563;28;20195;-46
2022/09/22 11:17:38;;;;;;;1.40;1.00;;;18.50;99.90;;;;;;5035823;28;20186;-46
2022/09/22 11:20:33;;;;;;;2.42;1.17;;;18.50;99.90;;;;;;5022544;28;20198;-46
2022/09/22 11:23:08;;;;;;;1.33;1.02;;;18.70;99.90;;;;;;5031531;28;20191;-46
2022/09/22 11:26:00;;;;;;;1.73;1.20;;;18.70;99.90;;;;;;5030320;28;20202;-46
2022/09/22 11:28:32;;;;;;;1.40;1.10;;;18.60;99.90;;;;;;5018558;28;20202;-47
2022/09/22 11:30:58;;;;;;;1.38;1.20;;;18.80;99.90;;;;;;4996232;28;20182;-46
2022/09/22 11:34:02;;;;;;;1.60;1.10;;;18.90;99.90;;;;;;5031327;28;20225;-47
2022/09/22 11:37:25;;;;;;;1.80;1.13;;;18.90;99.90;;;;;;4952772;28;20196;-46
2022/09/22 11:40:08;;;;;;;2.33;1.30;;;18.90;99.90;;;;;;4914275;29;20249;-47
2022/09/22 11:43:16;;;;;;;1.38;1.27;;;19.10;99.90;;;;;;4976461;28;20287;-46
2022/09/22 11:45:56;;;;;;;1.92;1.20;;;19.10;99.90;;;;;;5029327;28;20190;-46
2022/09/22 11:49:00;;;;;;;1.88;1.00;;;19.30;99.90;;;;;;5001187;28;20206;-46
2022/09/22 11:52:05;;;;;;;1.10;1.00;;;19.40;99.90;;;;;;5019827;28;20627;-46
2022/09/22 11:54:52;;;;;;;2.38;1.30;;;19.50;99.90;;;;;;5017386;28;20202;-45
2022/09/22 11:57:22;;;;;;;3.47;1.25;;;19.60;99.90;;;;;;5010147;28;20174;-46
2022/09/22 12:00:16;;;;;;;1.85;1.08;;;19.60;99.90;;;;;;5009629;28;20206;-46
2022/09/22 12:02:53;;;;;;;1.13;1.00;;;19.90;99.90;;;;;;5036747;28;20186;-47
2022/09/22 12:05:25;;;;;;;1.42;1.00;;;20.00;99.90;;;;;;5014354;28;20225;-47
2022/09/22 12:08:06;;;;;;;1.00;0.90;;;20.10;99.90;;;;;;5031452;28;20205;-47
2022/09/22 12:10:40;;;;;;;0.80;0.80;;;20.20;99.90;;;;;;5025360;28;20206;-46
2022/09/22 12:13:24;;;;;;;1.80;1.10;;;20.20;99.90;;;;;;5041434;28;20172;-47
2022/09/22 12:16:18;;;;;;;1.30;1.00;;;20.30;99.90;;;;;;5035163;28;20176;-46
2022/09/22 12:19:03;;;;;;;1.33;0.90;;;20.30;99.90;;;;;;5027106;28;20197;-46
2022/09/22 12:21:44;;;;;;;0.98;0.93;;;20.20;99.90;;;;;;4998296;28;20175;-46
2022/09/22 12:24:11;;;;;;;1.02;0.95;;;20.30;99.90;;;;;;4998435;28;20266;-47
2022/09/22 12:26:40;;;;;;;1.75;0.90;;;20.40;99.90;;;;;;4998521;28;20297;-46
2022/09/22 12:29:28;;;;;;;0.75;0.70;;;20.50;99.90;;;;;;5032935;28;20234;-46
2022/09/22 12:31:56;;;;;;;1.08;0.98;;;20.30;99.90;;;;;;5012038;28;21148;-45
2022/09/22 12:34:33;;;;;;;2.25;0.95;;;20.50;99.90;;;;;;4998478;28;20178;-46
2022/09/22 12:37:26;;;;;;;1.92;0.85;;;20.60;99.90;;;;;;5035746;28;20186;-46
2022/09/22 12:39:53;;;;;;;1.92;0.90;;;20.70;99.90;;;;;;5013809;28;20210;-46
2022/09/22 12:42:37;;;;;;;1.48;0.90;;;20.70;99.90;;;;;;5021504;28;20207;-45
2022/09/22 12:45:22;;;;;;;1.50;1.00;;;20.90;99.90;;;;;;5015144;28;20641;-47
2022/09/22 12:47:51;;;;;;;1.38;0.90;;;20.70;99.90;;;;;;5014385;28;20217;-46
2022/09/22 12:50:23;;;;;;;1.17;0.85;;;20.80;99.90;;;;;;5015006;28;20194;-46
2022/09/22 12:52:52;;;;;;;1.58;0.75;;;21.00;99.90;;;;;;4996638;28;20197;-46
2022/09/22 12:55:28;;;;;;;3.67;0.90;;;21.10;99.90;;;;;;4998667;28;20194;-46
2022/09/22 12:57:56;;;;;;;0.68;0.68;;;21.20;99.90;;;;;;4997688;28;20186;-45
2022/09/22 13:00:39;;;;;;;0.80;0.80;;;21.30;99.90;;;;;;4998463;28;20222;-46
2022/09/22 13:03:24;;;;;;;1.40;1.05;;;21.20;99.90;;;;;;4996053;28;20202;-46
2022/09/22 13:06:23;;;;;;;1.02;0.73;;;21.30;99.90;;;;;;4998524;28;20182;-46
2022/09/22 13:08:55;;;;;;;0.80;0.80;;;21.10;99.90;;;;;;5034019;28;20283;-46
2022/09/22 13:11:59;;;;;;;1.55;0.82;;;21.30;99.80;;;;;;5007268;28;20261;-47
2022/09/22 13:14:56;;;;;;;1.02;0.70;;;21.50;99.00;;;;;;5016295;28;20177;-46
2022/09/22 13:17:45;;;;;;;0.70;0.70;;;21.60;97.70;;;;;;5018243;28;20175;-46
2022/09/22 13:20:20;;;;;;;0.73;0.73;;;21.60;98.10;;;;;;4995688;28;20216;-46
2022/09/22 13:22:47;;;;;;;0.80;0.80;;;21.80;99.00;;;;;;5067240;22;20225;-31
2022/09/22 13:25:21;;;;;;;1.30;0.75;;;21.90;99.50;;;;;;5013185;28;20229;-31
2022/09/22 13:27:47;;;;;;;1.52;0.85;;;22.20;99.40;;;;;;5002986;28;20215;-32
2022/09/22 13:30:14;;;;;;;2.28;0.93;;;22.30;98.60;;;;;;5023431;28;20171;-31
2022/09/22 13:32:48;;;;;;;0.73;0.70;;;22.10;98.20;;;;;;4984803;28;20211;-31
2022/09/22 13:35:30;;;;;;;2.15;1.05;;;22.10;98.10;;;;;;4982639;28;20187;-31
2022/09/22 13:37:58;;;;;;;1.17;0.82;;;22.00;99.00;;;;;;4999614;28;20230;-31
2022/09/22 13:40:30;;;;;;;1.00;0.75;;;21.80;96.90;;;;;;4981893;28;20258;-31